createdAt,value
2023-02-02T00:01:34.020Z,7.30
2023-02-02T00:04:00.896Z,7.30
2023-02-02T00:06:29.586Z,7.30
2023-02-02T00:08:58.039Z,7.20
2023-02-02T00:11:25.317Z,7.20
2023-02-02T00:13:52.826Z,7.20
2023-02-02T00:16:28.667Z,7.30
2023-02-02T00:18:58.058Z,7.30
2023-02-02T00:21:25.398Z,7.30
2023-02-02T00:23:52.604Z,7.30
2023-02-02T00:26:20.274Z,7.40
2023-02-02T00:28:47.946Z,7.40
2023-02-02T00:31:14.858Z,7.40
2023-02-02T00:33:49.711Z,7.30
2023-02-02T00:36:18.033Z,7.30
2023-02-02T00:38:45.526Z,7.30
2023-02-02T00:41:12.349Z,7.30
2023-02-02T00:43:39.108Z,7.30
2023-02-02T00:46:09.554Z,7.30
2023-02-02T00:48:36.383Z,7.40
2023-02-02T00:51:03.176Z,7.40
2023-02-02T00:53:30.025Z,7.40
2023-02-02T00:55:56.836Z,7.40
2023-02-02T00:58:23.696Z,7.40
2023-02-02T01:00:50.428Z,7.40
2023-02-02T01:03:17.383Z,7.30
2023-02-02T01:05:44.207Z,7.30
2023-02-02T01:08:11.144Z,7.30
2023-02-02T01:10:37.931Z,7.30
2023-02-02T01:13:05.363Z,7.40
2023-02-02T01:15:32.311Z,7.40
2023-02-02T01:17:59.069Z,7.30
2023-02-02T01:20:25.958Z,7.30
2023-02-02T01:22:52.951Z,7.30
2023-02-02T01:25:20.129Z,7.30
2023-02-02T01:27:47.028Z,7.30
2023-02-02T01:30:14.282Z,7.20
2023-02-02T01:32:41.104Z,7.20
2023-02-02T01:35:08.105Z,7.20
2023-02-02T01:37:34.855Z,7.20
2023-02-02T01:40:01.638Z,7.20
2023-02-02T01:42:28.386Z,7.20
2023-02-02T01:45:07.287Z,7.10
2023-02-02T01:47:41.468Z,7.10
2023-02-02T01:50:10.354Z,7.10
2023-02-02T01:52:38.705Z,7.10
2023-02-02T01:55:11.601Z,7.10
2023-02-02T01:57:43.227Z,7.10
2023-02-02T02:00:13.493Z,7.00
2023-02-02T02:02:44.063Z,7.00
2023-02-02T02:05:12.056Z,7.00
2023-02-02T02:07:43.535Z,6.90
2023-02-02T02:10:10.918Z,6.90
2023-02-02T02:12:37.663Z,6.90
2023-02-02T02:15:23.905Z,6.90
2023-02-02T02:18:05.835Z,7.00
2023-02-02T02:21:19.023Z,7.00
2023-02-02T02:24:39.215Z,7.00
2023-02-02T02:27:33.702Z,7.00
2023-02-02T02:30:20.968Z,7.00
2023-02-02T02:33:06.731Z,7.00
2023-02-02T02:35:41.497Z,7.00
2023-02-02T02:38:29.789Z,7.00
2023-02-02T02:41:01.277Z,7.00
2023-02-02T02:43:35.311Z,7.00
2023-02-02T02:46:03.758Z,7.10
2023-02-02T02:48:30.632Z,7.10
2023-02-02T02:51:44.927Z,7.10
2023-02-02T02:54:14.689Z,7.10
2023-02-02T02:57:17.979Z,7.10
2023-02-02T03:00:35.348Z,7.10
2023-02-02T03:03:22.142Z,7.10
2023-02-02T03:06:13.073Z,7.10
2023-02-02T03:08:58.580Z,7.10
2023-02-02T03:11:25.589Z,7.10
2023-02-02T03:13:52.726Z,7.10
2023-02-02T03:16:19.478Z,7.20
2023-02-02T03:18:46.270Z,7.10
2023-02-02T03:21:13.094Z,7.10
2023-02-02T03:23:40.167Z,7.20
2023-02-02T03:26:07.401Z,7.20
2023-02-02T03:28:34.887Z,7.20
2023-02-02T03:31:02.313Z,7.20
2023-02-02T03:33:31.082Z,7.30
2023-02-02T03:35:57.812Z,7.30
2023-02-02T03:38:24.602Z,7.30
2023-02-02T03:40:52.131Z,7.30
2023-02-02T03:43:23.547Z,7.30
2023-02-02T03:46:02.107Z,7.30
2023-02-02T03:48:28.948Z,7.30
2023-02-02T03:50:55.852Z,7.20
2023-02-02T03:53:23.400Z,7.20
2023-02-02T03:55:50.614Z,7.20
2023-02-02T03:58:17.718Z,7.30
2023-02-02T04:00:44.467Z,7.30
2023-02-02T04:03:11.289Z,7.20
2023-02-02T04:05:38.039Z,7.20
2023-02-02T04:08:05.343Z,7.20
2023-02-02T04:10:32.135Z,7.20
2023-02-02T04:12:58.948Z,7.20
2023-02-02T04:15:25.951Z,7.20
2023-02-02T04:17:52.959Z,7.20
2023-02-02T04:20:19.983Z,7.30
2023-02-02T04:22:46.777Z,7.30
2023-02-02T04:25:13.548Z,7.30
2023-02-02T04:27:40.359Z,7.30
2023-02-02T04:30:07.700Z,7.30
2023-02-02T04:32:34.478Z,7.30
2023-02-02T04:35:01.233Z,7.30
2023-02-02T04:37:30.407Z,7.30
2023-02-02T04:39:57.289Z,7.30
2023-02-02T04:42:24.072Z,7.40
2023-02-02T04:44:50.905Z,7.40
2023-02-02T04:47:17.797Z,7.30
2023-02-02T04:49:44.553Z,7.30
2023-02-02T04:52:12.066Z,7.30
2023-02-02T04:54:38.824Z,7.30
2023-02-02T04:57:05.547Z,7.30
2023-02-02T04:59:32.335Z,7.30
2023-02-02T05:02:02.856Z,7.30
2023-02-02T05:04:29.713Z,7.30
2023-02-02T05:06:56.602Z,7.30
2023-02-02T05:09:23.464Z,7.40
2023-02-02T05:11:50.511Z,7.40
2023-02-02T05:14:18.501Z,7.30
2023-02-02T05:16:45.454Z,7.40
2023-02-02T05:19:12.910Z,7.40
2023-02-02T05:21:39.649Z,7.40
2023-02-02T05:24:06.612Z,7.40
2023-02-02T05:26:33.478Z,7.50
2023-02-02T05:29:00.281Z,7.40
2023-02-02T05:31:27.220Z,7.50
2023-02-02T05:33:54.018Z,7.40
2023-02-02T05:36:20.793Z,7.40
2023-02-02T05:38:47.759Z,7.40
2023-02-02T05:41:14.614Z,7.40
2023-02-02T05:43:41.477Z,7.40
2023-02-02T05:46:08.262Z,7.40
2023-02-02T05:48:35.065Z,7.40
2023-02-02T05:51:04.938Z,7.30
2023-02-02T05:53:32.174Z,7.30
2023-02-02T05:55:59.644Z,7.30
2023-02-02T05:58:28.167Z,7.40
2023-02-02T06:00:56.839Z,7.40
2023-02-02T06:03:24.218Z,7.30
2023-02-02T06:05:51.146Z,7.30
2023-02-02T06:08:17.964Z,7.30
2023-02-02T06:10:44.802Z,7.40
2023-02-02T06:13:11.904Z,7.40
2023-02-02T06:15:38.747Z,7.40
2023-02-02T06:18:08.568Z,7.40
2023-02-02T06:20:36.005Z,7.30
2023-02-02T06:23:02.889Z,7.40
2023-02-02T06:25:29.673Z,7.40
2023-02-02T06:28:00.848Z,7.40
2023-02-02T06:30:28.046Z,7.40
2023-02-02T06:32:55.528Z,7.40
2023-02-02T06:35:22.855Z,7.40
2023-02-02T06:37:50.012Z,7.40
2023-02-02T06:40:17.248Z,7.40
2023-02-02T06:42:44.004Z,7.40
2023-02-02T06:45:11.247Z,7.40
2023-02-02T06:47:38.080Z,7.40
2023-02-02T06:50:04.998Z,7.40
2023-02-02T06:52:31.839Z,7.40
2023-02-02T06:54:58.716Z,7.40
2023-02-02T06:57:25.594Z,7.40
2023-02-02T06:59:52.476Z,7.50
2023-02-02T07:02:19.342Z,7.40
2023-02-02T07:04:46.296Z,7.30
2023-02-02T07:07:13.011Z,7.40
2023-02-02T07:09:40.053Z,7.40
2023-02-02T07:12:06.886Z,7.40
2023-02-02T07:14:33.681Z,7.40
2023-02-02T07:17:00.531Z,7.40
2023-02-02T07:19:27.359Z,7.40
2023-02-02T07:21:54.227Z,7.40
2023-02-02T07:24:21.065Z,7.40
2023-02-02T07:26:47.961Z,7.40
2023-02-02T07:29:15.077Z,7.40
2023-02-02T07:31:42.180Z,7.40
2023-02-02T07:34:09.018Z,7.40
2023-02-02T07:36:36.147Z,7.40
2023-02-02T07:39:05.005Z,7.40
2023-02-02T07:41:33.771Z,7.40
2023-02-02T07:44:00.636Z,7.40
2023-02-02T07:46:27.701Z,7.40
2023-02-02T07:48:55.722Z,7.40
2023-02-02T07:51:23.141Z,7.40
2023-02-02T07:53:52.957Z,7.40
2023-02-02T07:56:25.485Z,7.40
2023-02-02T07:58:54.298Z,7.40
2023-02-02T08:01:23.223Z,7.30
2023-02-02T08:03:50.910Z,7.30
2023-02-02T08:06:18.975Z,7.30
2023-02-02T08:08:47.055Z,7.30
2023-02-02T08:11:16.015Z,7.30
2023-02-02T08:13:43.421Z,7.30
2023-02-02T08:16:11.293Z,7.40
2023-02-02T08:18:38.831Z,7.40
2023-02-02T08:21:08.571Z,7.40
2023-02-02T08:23:36.756Z,7.40
2023-02-02T08:26:10.954Z,7.40
2023-02-02T08:28:39.046Z,7.30
2023-02-02T08:31:11.118Z,7.30
2023-02-02T08:33:39.552Z,7.30
2023-02-02T08:36:12.154Z,7.20
2023-02-02T08:38:39.242Z,7.20
2023-02-02T08:41:10.985Z,7.20
2023-02-02T08:43:38.400Z,7.10
2023-02-02T08:46:06.872Z,7.10
2023-02-02T08:48:35.504Z,7.10
2023-02-02T08:51:03.295Z,7.10
2023-02-02T08:53:30.573Z,7.20
2023-02-02T08:56:04.556Z,7.20
2023-02-02T08:58:33.827Z,7.20
2023-02-02T09:01:22.485Z,7.30
2023-02-02T09:03:53.021Z,7.20
2023-02-02T09:06:21.246Z,7.20
2023-02-02T09:08:48.396Z,7.20
2023-02-02T09:11:20.097Z,7.30
2023-02-02T09:13:51.730Z,7.30
2023-02-02T09:16:19.196Z,7.30
2023-02-02T09:18:46.354Z,7.30
2023-02-02T09:21:15.263Z,7.30
2023-02-02T09:23:43.426Z,7.40
2023-02-02T09:26:22.570Z,7.40
2023-02-02T09:28:54.804Z,7.40
2023-02-02T09:31:22.960Z,7.40
2023-02-02T09:33:49.825Z,7.40
2023-02-02T09:36:26.971Z,7.40
2023-02-02T09:38:53.961Z,7.40
2023-02-02T09:41:35.708Z,7.40
2023-02-02T09:44:33.692Z,7.50
2023-02-02T09:47:21.654Z,7.50
2023-02-02T09:50:17.825Z,7.50
2023-02-02T09:53:09.392Z,7.60
2023-02-02T09:55:45.149Z,7.60
2023-02-02T09:58:16.121Z,7.60
2023-02-02T10:01:07.332Z,7.50
2023-02-02T10:03:50.306Z,7.60
2023-02-02T10:06:40.697Z,7.50
2023-02-02T10:09:26.465Z,7.50
2023-02-02T10:12:17.292Z,7.50
2023-02-02T10:15:13.211Z,7.50
2023-02-02T10:17:48.775Z,7.50
2023-02-02T10:20:29.118Z,7.50
2023-02-02T10:23:04.189Z,7.50
2023-02-02T10:25:32.505Z,7.50
2023-02-02T10:28:18.387Z,7.50
2023-02-02T10:30:50.553Z,7.30
2023-02-02T10:33:39.288Z,7.30
2023-02-02T10:36:12.100Z,7.30
2023-02-02T10:38:53.933Z,7.30
2023-02-02T10:41:33.570Z,7.30
2023-02-02T10:44:22.497Z,7.40
2023-02-02T10:46:53.808Z,7.40
2023-02-02T10:49:39.426Z,7.30
2023-02-02T10:52:16.237Z,7.30
2023-02-02T10:54:57.105Z,7.20
2023-02-02T10:57:50.106Z,7.30
2023-02-02T11:00:23.533Z,7.20
2023-02-02T11:02:52.860Z,7.30
2023-02-02T11:05:44.521Z,7.30
2023-02-02T11:08:18.751Z,7.30
2023-02-02T11:10:47.504Z,7.30
2023-02-02T11:13:30.518Z,7.20
2023-02-02T11:16:15.471Z,7.20
2023-02-02T11:18:44.373Z,7.30
2023-02-02T11:21:28.752Z,7.30
2023-02-02T11:24:01.014Z,7.20
2023-02-02T11:26:47.475Z,7.30
2023-02-02T11:29:21.691Z,7.20
2023-02-02T11:31:48.780Z,7.30
2023-02-02T11:34:25.692Z,7.30
2023-02-02T11:37:22.266Z,7.30
2023-02-02T11:39:49.024Z,7.30
2023-02-02T11:42:22.120Z,7.30
2023-02-02T11:44:51.780Z,7.20
2023-02-02T11:47:33.272Z,7.10
2023-02-02T11:50:04.702Z,7.10
2023-02-02T11:52:33.865Z,7.10
2023-02-02T11:55:09.212Z,7.10
2023-02-02T11:57:36.112Z,7.20
2023-02-02T12:00:12.013Z,7.20
2023-02-02T12:02:47.039Z,7.20
2023-02-02T12:05:35.611Z,7.20
2023-02-02T12:08:02.676Z,7.30
2023-02-02T12:11:03.088Z,7.30
2023-02-02T12:13:45.097Z,7.30
2023-02-02T12:16:17.803Z,7.30
2023-02-02T12:19:07.502Z,7.30
2023-02-02T12:21:41.916Z,7.30
2023-02-02T12:24:31.684Z,7.30
2023-02-02T12:27:23.481Z,7.40
2023-02-02T12:30:13.664Z,7.30
2023-02-02T12:33:10.084Z,7.10
2023-02-02T12:35:48.259Z,7.10
2023-02-02T12:38:30.808Z,7.20
2023-02-02T12:41:35.375Z,7.20
2023-02-02T12:44:11.200Z,7.10
2023-02-02T12:47:05.221Z,7.20
2023-02-02T12:50:12.691Z,7.30
2023-02-02T12:52:45.196Z,7.40
2023-02-02T12:55:24.163Z,7.30
2023-02-02T12:58:09.256Z,7.30
2023-02-02T13:00:57.409Z,7.20
2023-02-02T13:03:51.242Z,7.20
2023-02-02T13:06:32.614Z,7.00
2023-02-02T13:09:13.410Z,7.10
2023-02-02T13:11:51.714Z,7.00
2023-02-02T13:14:35.591Z,6.80
2023-02-02T13:17:29.030Z,6.80
2023-02-02T13:20:05.477Z,6.80
2023-02-02T13:22:42.208Z,6.70
2023-02-02T13:25:28.574Z,6.40
2023-02-02T13:27:56.634Z,6.30
2023-02-02T13:30:31.970Z,6.40
2023-02-02T13:33:03.028Z,6.50
2023-02-02T13:36:00.731Z,6.50
2023-02-02T13:38:42.265Z,6.60
2023-02-02T13:41:13.449Z,6.70
2023-02-02T13:44:01.721Z,6.70
2023-02-02T13:46:49.751Z,6.80
2023-02-02T13:49:43.091Z,6.60
2023-02-02T13:52:18.822Z,6.50
2023-02-02T13:55:30.387Z,6.50
2023-02-02T13:58:17.737Z,6.60
2023-02-02T14:00:54.015Z,6.70
2023-02-02T14:03:32.349Z,6.80
2023-02-02T14:06:17.189Z,6.60
2023-02-02T14:09:01.577Z,6.70
2023-02-02T14:11:42.507Z,6.70
2023-02-02T14:14:34.891Z,6.60
2023-02-02T14:17:33.404Z,6.80
2023-02-02T14:20:02.423Z,6.90
2023-02-02T14:23:01.185Z,6.90
2023-02-02T14:25:33.807Z,6.80
2023-02-02T14:28:03.070Z,6.90
2023-02-02T14:30:40.000Z,7.10
2023-02-02T14:33:37.214Z,7.20
2023-02-02T14:36:05.446Z,7.30
2023-02-02T14:38:54.920Z,7.20
2023-02-02T14:42:01.527Z,7.20
2023-02-02T14:44:28.806Z,7.00
2023-02-02T14:46:55.782Z,6.90
2023-02-02T14:49:26.361Z,7.10
2023-02-02T14:52:01.554Z,7.00
2023-02-02T14:54:37.459Z,7.10
2023-02-02T14:57:28.335Z,7.20
2023-02-02T14:59:58.668Z,7.20
2023-02-02T15:02:34.738Z,7.20
2023-02-02T15:05:39.087Z,7.10
2023-02-02T15:08:23.204Z,7.00
2023-02-02T15:10:54.075Z,7.10
2023-02-02T15:13:52.004Z,7.00
2023-02-02T15:16:28.493Z,7.00
2023-02-02T15:19:07.084Z,7.10
2023-02-02T15:21:37.625Z,7.00
2023-02-02T15:24:06.070Z,7.00
2023-02-02T15:26:42.852Z,7.00
2023-02-02T15:29:37.578Z,6.90
2023-02-02T15:32:07.199Z,7.10
2023-02-02T15:34:46.641Z,7.10
2023-02-02T15:37:21.609Z,7.10
2023-02-02T15:39:52.717Z,7.00
2023-02-02T15:42:41.623Z,7.00
2023-02-02T15:45:28.406Z,6.90
2023-02-02T15:47:57.785Z,6.50
2023-02-02T15:50:25.108Z,6.00
2023-02-02T15:52:53.835Z,5.90
2023-02-02T15:55:30.119Z,5.70
2023-02-02T15:57:56.946Z,5.60
2023-02-02T16:00:32.710Z,5.40
2023-02-02T16:03:19.294Z,5.50
2023-02-02T16:05:49.960Z,5.60
2023-02-02T16:08:29.853Z,5.60
2023-02-02T16:11:17.245Z,5.70
2023-02-02T16:14:02.188Z,6.00
2023-02-02T16:16:35.212Z,6.00
2023-02-02T16:19:16.416Z,6.10
2023-02-02T16:21:55.040Z,6.20
2023-02-02T16:24:35.003Z,6.10
2023-02-02T16:27:06.483Z,6.20
2023-02-02T16:29:34.835Z,6.20
2023-02-02T16:32:02.085Z,6.30
2023-02-02T16:34:41.122Z,6.30
2023-02-02T16:37:22.497Z,6.30
2023-02-02T16:39:49.912Z,6.40
2023-02-02T16:42:28.714Z,6.40
2023-02-02T16:44:59.922Z,6.10
2023-02-02T16:47:26.703Z,6.10
2023-02-02T16:50:08.608Z,6.20
2023-02-02T16:52:56.545Z,6.10
2023-02-02T16:55:24.383Z,6.10
2023-02-02T16:57:52.161Z,6.00
2023-02-02T17:00:24.663Z,6.00
2023-02-02T17:03:00.151Z,6.00
2023-02-02T17:05:45.319Z,6.00
2023-02-02T17:08:12.220Z,6.10
2023-02-02T17:10:42.258Z,6.30
2023-02-02T17:13:36.543Z,6.30
2023-02-02T17:16:03.943Z,6.30
2023-02-02T17:18:30.695Z,6.40
2023-02-02T17:21:04.223Z,6.30
2023-02-02T17:23:32.148Z,6.40
2023-02-02T17:25:59.346Z,6.40
2023-02-02T17:28:27.259Z,6.40
2023-02-02T17:31:02.050Z,6.40
2023-02-02T17:33:29.138Z,6.50
2023-02-02T17:35:56.628Z,6.50
2023-02-02T17:38:24.917Z,6.50
2023-02-02T17:40:52.910Z,6.40
2023-02-02T17:43:19.742Z,6.40
2023-02-02T17:45:47.353Z,6.40
2023-02-02T17:48:14.849Z,6.40
2023-02-02T17:50:42.627Z,6.40
2023-02-02T17:53:15.159Z,6.30
2023-02-02T17:55:44.033Z,6.20
2023-02-02T17:58:14.437Z,6.10
2023-02-02T18:00:41.912Z,6.20
2023-02-02T18:03:27.296Z,6.20
2023-02-02T18:05:54.106Z,6.30
2023-02-02T18:08:20.991Z,6.20
2023-02-02T18:10:48.131Z,6.30
2023-02-02T18:13:17.576Z,6.30
2023-02-02T18:15:44.387Z,6.40
2023-02-02T18:18:14.322Z,6.30
2023-02-02T18:20:46.497Z,6.30
2023-02-02T18:23:14.861Z,6.30
2023-02-02T18:25:42.597Z,6.10
2023-02-02T18:28:10.821Z,6.10
2023-02-02T18:30:41.583Z,6.00
2023-02-02T18:33:17.485Z,6.10
2023-02-02T18:35:45.583Z,6.10
2023-02-02T18:38:13.137Z,6.20
2023-02-02T18:40:39.881Z,6.20
2023-02-02T18:43:06.724Z,6.20
2023-02-02T18:45:33.705Z,6.20
2023-02-02T18:48:00.522Z,6.30
2023-02-02T18:50:27.392Z,6.30
2023-02-02T18:52:54.462Z,6.30
2023-02-02T18:55:21.215Z,6.20
2023-02-02T18:57:48.154Z,6.20
2023-02-02T19:00:15.796Z,6.30
2023-02-02T19:02:42.578Z,6.20
2023-02-02T19:05:28.563Z,6.10
2023-02-02T19:07:55.566Z,6.10
2023-02-02T19:10:24.115Z,6.00
2023-02-02T19:13:13.686Z,5.90
2023-02-02T19:15:42.481Z,6.00
2023-02-02T19:18:19.217Z,6.00
2023-02-02T19:20:46.947Z,6.00
2023-02-02T19:23:19.586Z,6.00
2023-02-02T19:25:51.427Z,6.00
2023-02-02T19:28:24.300Z,5.80
2023-02-02T19:30:53.491Z,6.00
2023-02-02T19:33:21.071Z,6.00
2023-02-02T19:35:52.451Z,6.00
2023-02-02T19:38:20.714Z,5.90
2023-02-02T19:40:48.147Z,6.00
2023-02-02T19:43:21.070Z,6.00
2023-02-02T19:45:48.011Z,5.90
2023-02-02T19:48:27.695Z,5.90
2023-02-02T19:50:55.980Z,5.80
2023-02-02T19:53:34.767Z,5.60
2023-02-02T19:56:02.111Z,5.60
2023-02-02T19:58:37.460Z,5.70
2023-02-02T20:01:15.009Z,5.70
2023-02-02T20:03:43.343Z,5.50
2023-02-02T20:06:17.646Z,5.30
2023-02-02T20:08:44.510Z,5.40
2023-02-02T20:11:32.733Z,5.40
2023-02-02T20:14:19.109Z,5.30
2023-02-02T20:16:50.546Z,5.50
2023-02-02T20:19:21.649Z,5.50
2023-02-02T20:21:51.284Z,5.60
2023-02-02T20:24:40.672Z,5.60
2023-02-02T20:27:25.613Z,5.50
2023-02-02T20:29:54.166Z,5.40
2023-02-02T20:32:35.777Z,5.50
2023-02-02T20:35:22.051Z,5.60
2023-02-02T20:37:49.261Z,5.50
2023-02-02T20:40:24.205Z,5.60
2023-02-02T20:42:51.732Z,5.70
2023-02-02T20:45:19.152Z,5.60
2023-02-02T20:47:46.413Z,5.50
2023-02-02T20:50:16.192Z,5.60
2023-02-02T20:52:43.074Z,5.60
2023-02-02T20:55:10.609Z,5.70
2023-02-02T20:57:38.682Z,5.70
2023-02-02T21:00:07.855Z,5.80
2023-02-02T21:02:34.956Z,5.80
2023-02-02T21:05:01.731Z,5.70
2023-02-02T21:07:28.702Z,5.60
2023-02-02T21:09:55.688Z,5.60
2023-02-02T21:12:25.579Z,5.60
2023-02-02T21:14:55.470Z,5.60
2023-02-02T21:17:22.446Z,5.60
2023-02-02T21:19:49.317Z,5.60
2023-02-02T21:22:16.079Z,5.60
2023-02-02T21:24:42.940Z,5.50
2023-02-02T21:27:10.078Z,5.50
2023-02-02T21:29:37.082Z,5.40
2023-02-02T21:32:04.550Z,5.50
2023-02-02T21:34:31.810Z,5.50
2023-02-02T21:36:59.185Z,5.50
2023-02-02T21:39:35.158Z,5.50
2023-02-02T21:42:07.710Z,5.50
2023-02-02T21:44:36.661Z,5.50
2023-02-02T21:47:07.122Z,5.40
2023-02-02T21:49:38.378Z,5.50
2023-02-02T21:52:15.584Z,5.40
2023-02-02T21:54:42.771Z,5.40
2023-02-02T21:57:21.755Z,5.30
2023-02-02T21:59:55.683Z,5.30
2023-02-02T22:02:31.654Z,5.50
2023-02-02T22:05:01.783Z,5.50
2023-02-02T22:07:28.876Z,5.40
2023-02-02T22:09:55.948Z,5.50
2023-02-02T22:12:28.522Z,5.60
2023-02-02T22:15:00.594Z,5.50
2023-02-02T22:17:41.787Z,5.60
2023-02-02T22:20:17.744Z,5.60
2023-02-02T22:22:50.172Z,5.50
2023-02-02T22:25:16.953Z,5.50
2023-02-02T22:27:48.630Z,5.60
2023-02-02T22:30:34.046Z,5.60
2023-02-02T22:33:00.890Z,5.50
2023-02-02T22:35:27.727Z,5.50
2023-02-02T22:37:54.620Z,5.50
2023-02-02T22:40:24.700Z,5.50
2023-02-02T22:42:53.841Z,5.50
2023-02-02T22:45:20.722Z,5.50
2023-02-02T22:47:47.843Z,5.40
2023-02-02T22:50:15.638Z,5.40
2023-02-02T22:52:43.222Z,5.40
2023-02-02T22:55:11.109Z,5.40
2023-02-02T22:57:38.317Z,5.50
2023-02-02T23:00:14.496Z,5.50
2023-02-02T23:02:42.202Z,5.60
2023-02-02T23:05:11.635Z,5.50
2023-02-02T23:07:39.624Z,5.50
2023-02-02T23:10:07.536Z,5.50
2023-02-02T23:12:34.985Z,5.60
2023-02-02T23:15:01.826Z,5.60
2023-02-02T23:17:28.642Z,5.60
2023-02-02T23:19:55.393Z,5.60
2023-02-02T23:22:22.178Z,5.60
2023-02-02T23:24:49.019Z,5.50
2023-02-02T23:27:15.951Z,5.50
2023-02-02T23:29:42.688Z,5.60
2023-02-02T23:32:09.482Z,5.60
2023-02-02T23:34:36.202Z,5.60
2023-02-02T23:37:02.961Z,5.50
2023-02-02T23:39:29.697Z,5.50
2023-02-02T23:41:56.456Z,5.40
2023-02-02T23:44:23.255Z,5.20
2023-02-02T23:46:50.893Z,5.20
2023-02-02T23:49:18.168Z,5.30
2023-02-02T23:51:45.127Z,5.40
2023-02-02T23:54:13.597Z,5.30
2023-02-02T23:56:41.733Z,5.40
2023-02-02T23:59:09.307Z,5.40
